sensor_id;sensor_type;location;lat;lon;timestamp;pressure;altitude;pressure_sealevel;temperature;humidity
17505;BME280;8870;50.950;11.762;2022-12-07T00:02:38;98215.84;;;0.80;100.00
17505;BME280;8870;50.950;11.762;2022-12-07T00:08:12;98203.72;;;0.88;100.00
17505;BME280;8870;50.950;11.762;2022-12-07T00:13:32;98202.69;;;1.04;100.00
17505;BME280;8870;50.950;11.762;2022-12-07T00:19:04;98186.34;;;0.97;100.00
17505;BME280;8870;50.950;11.762;2022-12-07T00:24:25;98179.13;;;0.99;100.00
17505;BME280;8870;50.950;11.762;2022-12-07T00:29:56;98172.56;;;1.05;100.00
17505;BME280;8870;50.950;11.762;2022-12-07T00:35:15;98165.44;;;0.92;100.00
17505;BME280;8870;50.950;11.762;2022-12-07T00:40:56;98153.69;;;0.71;100.00
17505;BME280;8870;50.950;11.762;2022-12-07T00:46:15;98167.66;;;0.60;100.00
17505;BME280;8870;50.950;11.762;2022-12-07T00:51:48;98164.56;;;0.53;100.00
17505;BME280;8870;50.950;11.762;2022-12-07T00:57:10;98155.53;;;0.43;100.00
17505;BME280;8870;50.950;11.762;2022-12-07T01:02:41;98163.38;;;0.32;100.00
17505;BME280;8870;50.950;11.762;2022-12-07T01:08:00;98165.06;;;0.20;100.00
17505;BME280;8870;50.950;11.762;2022-12-07T01:13:35;98150.72;;;0.09;100.00
17505;BME280;8870;50.950;11.762;2022-12-07T01:18:55;98144.25;;;0.01;100.00
17505;BME280;8870;50.950;11.762;2022-12-07T01:24:26;98155.34;;;-0.07;100.00
17505;BME280;8870;50.950;11.762;2022-12-07T01:29:47;98159.34;;;-0.14;100.00
17505;BME280;8870;50.950;11.762;2022-12-07T01:35:18;98156.25;;;-0.21;100.00
17505;BME280;8870;50.950;11.762;2022-12-07T01:40:37;98149.56;;;-0.27;100.00
17505;BME280;8870;50.950;11.762;2022-12-07T01:46:10;98155.16;;;-0.32;100.00
17505;BME280;8870;50.950;11.762;2022-12-07T01:51:29;98148.34;;;-0.36;100.00
17505;BME280;8870;50.950;11.762;2022-12-07T01:57:02;98147.59;;;-0.38;100.00
17505;BME280;8870;50.950;11.762;2022-12-07T02:02:27;98150.66;;;-0.44;100.00
17505;BME280;8870;50.950;11.762;2022-12-07T02:08:02;98145.53;;;-0.47;100.00
17505;BME280;8870;50.950;11.762;2022-12-07T02:13:23;98126.25;;;-0.49;100.00
17505;BME280;8870;50.950;11.762;2022-12-07T02:25:01;98121.91;;;-0.50;100.00
17505;BME280;8870;50.950;11.762;2022-12-07T02:30:45;98117.19;;;-0.45;100.00
17505;BME280;8870;50.950;11.762;2022-12-07T02:36:08;98120.47;;;-0.41;100.00
17505;BME280;8870;50.950;11.762;2022-12-07T02:41:44;98113.53;;;-0.29;100.00
17505;BME280;8870;50.950;11.762;2022-12-07T02:47:10;98108.97;;;-0.27;100.00
17505;BME280;8870;50.950;11.762;2022-12-07T02:52:42;98102.53;;;-0.23;100.00
17505;BME280;8870;50.950;11.762;2022-12-07T02:58:23;98101.28;;;-0.18;100.00
17505;BME280;8870;50.950;11.762;2022-12-07T03:03:58;98094.63;;;-0.10;100.00
17505;BME280;8870;50.950;11.762;2022-12-07T03:09:37;98080.25;;;-0.06;100.00
17505;BME280;8870;50.950;11.762;2022-12-07T03:15:02;98076.44;;;-0.02;100.00
17505;BME280;8870;50.950;11.762;2022-12-07T03:20:41;98070.91;;;0.01;100.00
17505;BME280;8870;50.950;11.762;2022-12-07T03:26:02;98061.00;;;0.05;100.00
17505;BME280;8870;50.950;11.762;2022-12-07T03:31:38;98053.25;;;0.02;100.00
17505;BME280;8870;50.950;11.762;2022-12-07T03:37:04;98055.69;;;0.05;100.00
17505;BME280;8870;50.950;11.762;2022-12-07T03:42:37;98060.03;;;0.06;100.00
17505;BME280;8870;50.950;11.762;2022-12-07T03:48:02;98051.22;;;0.05;100.00
17505;BME280;8870;50.950;11.762;2022-12-07T03:53:43;98047.63;;;0.06;100.00
17505;BME280;8870;50.950;11.762;2022-12-07T03:59:03;98054.81;;;0.04;100.00
17505;BME280;8870;50.950;11.762;2022-12-07T04:04:35;98064.78;;;0.01;100.00
17505;BME280;8870;50.950;11.762;2022-12-07T04:09:57;98068.38;;;-0.01;100.00
17505;BME280;8870;50.950;11.762;2022-12-07T04:15:28;98067.84;;;-0.06;100.00
17505;BME280;8870;50.950;11.762;2022-12-07T04:20:47;98073.13;;;-0.06;100.00
17505;BME280;8870;50.950;11.762;2022-12-07T04:26:22;98078.53;;;-0.07;100.00
17505;BME280;8870;50.950;11.762;2022-12-07T04:31:41;98075.88;;;-0.07;100.00
17505;BME280;8870;50.950;11.762;2022-12-07T04:37:12;98075.78;;;-0.06;100.00
17505;BME280;8870;50.950;11.762;2022-12-07T04:42:34;98072.19;;;-0.05;100.00
17505;BME280;8870;50.950;11.762;2022-12-07T04:48:06;98073.13;;;-0.06;100.00
17505;BME280;8870;50.950;11.762;2022-12-07T04:53:30;98082.78;;;-0.05;100.00
17505;BME280;8870;50.950;11.762;2022-12-07T04:59:05;98074.00;;;-0.05;100.00
17505;BME280;8870;50.950;11.762;2022-12-07T05:04:24;98075.56;;;-0.03;100.00
17505;BME280;8870;50.950;11.762;2022-12-07T05:09:54;98070.28;;;-0.03;100.00
17505;BME280;8870;50.950;11.762;2022-12-07T05:15:28;98076.31;;;-0.01;100.00
17505;BME280;8870;50.950;11.762;2022-12-07T05:20:50;98078.22;;;-0.03;100.00
17505;BME280;8870;50.950;11.762;2022-12-07T05:26:22;98081.63;;;-0.01;100.00
17505;BME280;8870;50.950;11.762;2022-12-07T05:31:42;98078.03;;;0.01;100.00
17505;BME280;8870;50.950;11.762;2022-12-07T05:37:13;98078.78;;;0.03;100.00
17505;BME280;8870;50.950;11.762;2022-12-07T05:42:32;98074.31;;;0.03;100.00
17505;BME280;8870;50.950;11.762;2022-12-07T05:48:05;98082.06;;;0.06;100.00
17505;BME280;8870;50.950;11.762;2022-12-07T05:53:30;98081.94;;;0.08;100.00
17505;BME280;8870;50.950;11.762;2022-12-07T05:59:02;98074.75;;;0.10;100.00
17505;BME280;8870;50.950;11.762;2022-12-07T06:04:42;98079.84;;;0.13;100.00
17505;BME280;8870;50.950;11.762;2022-12-07T06:10:15;98084.09;;;0.15;100.00
17505;BME280;8870;50.950;11.762;2022-12-07T06:15:35;98082.81;;;0.21;100.00
17505;BME280;8870;50.950;11.762;2022-12-07T06:21:09;98084.50;;;0.22;100.00
17505;BME280;8870;50.950;11.762;2022-12-07T06:26:45;98093.22;;;0.37;100.00
17505;BME280;8870;50.950;11.762;2022-12-07T06:32:16;98104.25;;;0.70;100.00
17505;BME280;8870;50.950;11.762;2022-12-07T06:37:39;98101.50;;;0.84;100.00
17505;BME280;8870;50.950;11.762;2022-12-07T06:43:12;98111.84;;;1.00;100.00
17505;BME280;8870;50.950;11.762;2022-12-07T06:48:30;98103.78;;;1.02;100.00
17505;BME280;8870;50.950;11.762;2022-12-07T06:54:04;98105.28;;;1.06;100.00
17505;BME280;8870;50.950;11.762;2022-12-07T06:59:22;98105.06;;;1.09;100.00
17505;BME280;8870;50.950;11.762;2022-12-07T07:04:53;98098.22;;;1.18;100.00
17505;BME280;8870;50.950;11.762;2022-12-07T07:10:14;98107.56;;;1.23;100.00
17505;BME280;8870;50.950;11.762;2022-12-07T07:15:47;98110.00;;;1.27;100.00
17505;BME280;8870;50.950;11.762;2022-12-07T07:21:06;98097.03;;;1.35;100.00
17505;BME280;8870;50.950;11.762;2022-12-07T07:26:40;98100.31;;;1.38;100.00
17505;BME280;8870;50.950;11.762;2022-12-07T07:31:59;98094.13;;;1.38;100.00
17505;BME280;8870;50.950;11.762;2022-12-07T07:37:58;98092.22;;;1.40;100.00
17505;BME280;8870;50.950;11.762;2022-12-07T07:43:37;98086.38;;;1.48;100.00
17505;BME280;8870;50.950;11.762;2022-12-07T07:49:09;98099.50;;;1.49;100.00
17505;BME280;8870;50.950;11.762;2022-12-07T07:54:34;98089.41;;;1.54;100.00
17505;BME280;8870;50.950;11.762;2022-12-07T08:00:11;98096.22;;;1.59;100.00
17505;BME280;8870;50.950;11.762;2022-12-07T08:05:30;98097.44;;;1.66;100.00
17505;BME280;8870;50.950;11.762;2022-12-07T08:11:00;98099.63;;;1.72;100.00
17505;BME280;8870;50.950;11.762;2022-12-07T08:16:24;98092.91;;;1.79;100.00
17505;BME280;8870;50.950;11.762;2022-12-07T08:21:56;98072.16;;;1.84;100.00
17505;BME280;8870;50.950;11.762;2022-12-07T08:27:15;98064.19;;;1.84;100.00
17505;BME280;8870;50.950;11.762;2022-12-07T08:32:51;98063.75;;;1.91;100.00
17505;BME280;8870;50.950;11.762;2022-12-07T08:38:10;98055.19;;;1.98;100.00
17505;BME280;8870;50.950;11.762;2022-12-07T08:43:48;98073.94;;;2.08;100.00
17505;BME280;8870;50.950;11.762;2022-12-07T08:49:12;98050.91;;;2.20;100.00
17505;BME280;8870;50.950;11.762;2022-12-07T08:54:48;98049.84;;;2.34;100.00
17505;BME280;8870;50.950;11.762;2022-12-07T09:00:08;98050.81;;;2.44;100.00
17505;BME280;8870;50.950;11.762;2022-12-07T09:05:43;98052.06;;;2.52;100.00
17505;BME280;8870;50.950;11.762;2022-12-07T09:11:02;98047.09;;;2.58;100.00
17505;BME280;8870;50.950;11.762;2022-12-07T09:16:40;98045.88;;;2.62;100.00
17505;BME280;8870;50.950;11.762;2022-12-07T09:22:03;98043.81;;;2.66;100.00
17505;BME280;8870;50.950;11.762;2022-12-07T09:27:36;98045.16;;;2.72;100.00
17505;BME280;8870;50.950;11.762;2022-12-07T09:32:55;98056.41;;;2.75;100.00
17505;BME280;8870;50.950;11.762;2022-12-07T09:38:29;98043.56;;;2.81;100.00
17505;BME280;8870;50.950;11.762;2022-12-07T09:43:48;98031.72;;;2.85;100.00
17505;BME280;8870;50.950;11.762;2022-12-07T09:49:20;98027.84;;;2.89;100.00
17505;BME280;8870;50.950;11.762;2022-12-07T09:54:45;98025.81;;;2.92;100.00
17505;BME280;8870;50.950;11.762;2022-12-07T10:00:19;98014.78;;;2.97;100.00
17505;BME280;8870;50.950;11.762;2022-12-07T10:05:41;98005.56;;;3.01;100.00
17505;BME280;8870;50.950;11.762;2022-12-07T10:11:15;98024.19;;;3.01;100.00
17505;BME280;8870;50.950;11.762;2022-12-07T10:16:38;98005.09;;;3.07;100.00
17505;BME280;8870;50.950;11.762;2022-12-07T10:22:12;97993.47;;;3.08;100.00
17505;BME280;8870;50.950;11.762;2022-12-07T10:27:41;97997.84;;;3.10;100.00
17505;BME280;8870;50.950;11.762;2022-12-07T10:33:36;97995.63;;;3.15;100.00
17505;BME280;8870;50.950;11.762;2022-12-07T10:39:01;97989.69;;;3.22;100.00
17505;BME280;8870;50.950;11.762;2022-12-07T10:44:36;98034.34;;;3.19;100.00
17505;BME280;8870;50.950;11.762;2022-12-07T10:50:24;97975.78;;;3.19;100.00
17505;BME280;8870;50.950;11.762;2022-12-07T10:56:16;97981.09;;;3.19;100.00
17505;BME280;8870;50.950;11.762;2022-12-07T11:01:45;97975.53;;;3.22;100.00
17505;BME280;8870;50.950;11.762;2022-12-07T11:07:23;97980.34;;;3.28;100.00
17505;BME280;8870;50.950;11.762;2022-12-07T11:13:04;97973.69;;;3.34;100.00
17505;BME280;8870;50.950;11.762;2022-12-07T11:18:54;97982.53;;;3.55;100.00
17505;BME280;8870;50.950;11.762;2022-12-07T11:24:20;97966.59;;;3.77;100.00
17505;BME280;8870;50.950;11.762;2022-12-07T11:30:13;97977.31;;;3.65;100.00
17505;BME280;8870;50.950;11.762;2022-12-07T11:35:45;97970.47;;;3.51;100.00
17505;BME280;8870;50.950;11.762;2022-12-07T11:41:25;97985.25;;;3.44;100.00
17505;BME280;8870;50.950;11.762;2022-12-07T11:46:49;97963.75;;;3.36;100.00
17505;BME280;8870;50.950;11.762;2022-12-07T11:52:29;97953.22;;;3.34;100.00
17505;BME280;8870;50.950;11.762;2022-12-07T11:57:53;97957.66;;;3.45;100.00
17505;BME280;8870;50.950;11.762;2022-12-07T12:03:30;97963.78;;;3.57;100.00
17505;BME280;8870;50.950;11.762;2022-12-07T12:08:59;97938.06;;;3.67;100.00
17505;BME280;8870;50.950;11.762;2022-12-07T12:15:03;97944.81;;;3.72;100.00
17505;BME280;8870;50.950;11.762;2022-12-07T12:20:27;97952.78;;;3.72;100.00
17505;BME280;8870;50.950;11.762;2022-12-07T12:26:04;97911.75;;;3.74;100.00
17505;BME280;8870;50.950;11.762;2022-12-07T12:31:36;97928.38;;;3.66;100.00
17505;BME280;8870;50.950;11.762;2022-12-07T12:37:44;97921.16;;;3.57;100.00
17505;BME280;8870;50.950;11.762;2022-12-07T12:49:38;97933.53;;;3.26;100.00
17505;BME280;8870;50.950;11.762;2022-12-07T12:55:00;97934.38;;;3.26;100.00
17505;BME280;8870;50.950;11.762;2022-12-07T13:00:35;97919.03;;;3.18;100.00
17505;BME280;8870;50.950;11.762;2022-12-07T13:06:19;97921.63;;;3.08;100.00
17505;BME280;8870;50.950;11.762;2022-12-07T13:11:58;97906.41;;;2.99;100.00
17505;BME280;8870;50.950;11.762;2022-12-07T13:23:27;97932.53;;;2.94;100.00
17505;BME280;8870;50.950;11.762;2022-12-07T13:28:49;97925.50;;;3.04;100.00
17505;BME280;8870;50.950;11.762;2022-12-07T13:34:29;97920.66;;;3.10;100.00
17505;BME280;8870;50.950;11.762;2022-12-07T13:39:51;97916.06;;;3.12;100.00
17505;BME280;8870;50.950;11.762;2022-12-07T13:45:25;97931.53;;;3.06;100.00
17505;BME280;8870;50.950;11.762;2022-12-07T13:51:04;97923.06;;;3.01;100.00
17505;BME280;8870;50.950;11.762;2022-12-07T13:56:37;97917.06;;;2.99;100.00
17505;BME280;8870;50.950;11.762;2022-12-07T14:02:18;97930.59;;;2.96;100.00
17505;BME280;8870;50.950;11.762;2022-12-07T14:07:49;97920.34;;;2.91;100.00
17505;BME280;8870;50.950;11.762;2022-12-07T14:13:31;97926.06;;;2.75;100.00
17505;BME280;8870;50.950;11.762;2022-12-07T14:18:50;97934.06;;;2.75;100.00
17505;BME280;8870;50.950;11.762;2022-12-07T14:24:22;97929.34;;;2.68;100.00
17505;BME280;8870;50.950;11.762;2022-12-07T14:29:42;97917.50;;;2.60;100.00
17505;BME280;8870;50.950;11.762;2022-12-07T14:35:17;97911.81;;;2.54;100.00
17505;BME280;8870;50.950;11.762;2022-12-07T14:40:35;97907.50;;;2.53;100.00
17505;BME280;8870;50.950;11.762;2022-12-07T14:46:09;97900.72;;;2.49;100.00
17505;BME280;8870;50.950;11.762;2022-12-07T14:51:27;97899.16;;;2.46;100.00
17505;BME280;8870;50.950;11.762;2022-12-07T14:57:18;97887.69;;;2.34;100.00
17505;BME280;8870;50.950;11.762;2022-12-07T15:02:52;97897.22;;;2.25;100.00
17505;BME280;8870;50.950;11.762;2022-12-07T15:08:12;97895.53;;;2.13;100.00
17505;BME280;8870;50.950;11.762;2022-12-07T15:13:43;97909.09;;;2.10;100.00
17505;BME280;8870;50.950;11.762;2022-12-07T15:19:18;97906.78;;;2.05;100.00
17505;BME280;8870;50.950;11.762;2022-12-07T15:24:51;97900.25;;;1.98;100.00
17505;BME280;8870;50.950;11.762;2022-12-07T15:30:09;97916.78;;;1.90;100.00
17505;BME280;8870;50.950;11.762;2022-12-07T15:35:44;97914.00;;;1.80;100.00
17505;BME280;8870;50.950;11.762;2022-12-07T15:41:03;97917.72;;;1.78;100.00
17505;BME280;8870;50.950;11.762;2022-12-07T15:46:35;97921.34;;;1.77;100.00
17505;BME280;8870;50.950;11.762;2022-12-07T15:51:56;97926.78;;;1.75;100.00
17505;BME280;8870;50.950;11.762;2022-12-07T15:57:28;97930.75;;;1.69;100.00
17505;BME280;8870;50.950;11.762;2022-12-07T16:02:59;97927.50;;;1.66;100.00
17505;BME280;8870;50.950;11.762;2022-12-07T16:08:19;97932.81;;;1.66;100.00
17505;BME280;8870;50.950;11.762;2022-12-07T16:13:51;97930.88;;;1.68;100.00
17505;BME280;8870;50.950;11.762;2022-12-07T16:19:28;97922.91;;;1.68;100.00
17505;BME280;8870;50.950;11.762;2022-12-07T16:24:55;97928.09;;;1.69;100.00
17505;BME280;8870;50.950;11.762;2022-12-07T16:30:14;97931.84;;;1.67;100.00
17505;BME280;8870;50.950;11.762;2022-12-07T16:35:47;97935.25;;;1.69;100.00
17505;BME280;8870;50.950;11.762;2022-12-07T16:41:08;97926.41;;;1.68;100.00
17505;BME280;8870;50.950;11.762;2022-12-07T16:46:40;97938.25;;;1.64;100.00
17505;BME280;8870;50.950;11.762;2022-12-07T16:51:58;97933.50;;;1.57;100.00
17505;BME280;8870;50.950;11.762;2022-12-07T16:57:37;97934.34;;;1.57;100.00
17505;BME280;8870;50.950;11.762;2022-12-07T17:03:09;97938.09;;;1.54;100.00
17505;BME280;8870;50.950;11.762;2022-12-07T17:08:31;97930.13;;;1.54;100.00
17505;BME280;8870;50.950;11.762;2022-12-07T17:14:04;97935.44;;;1.54;100.00
17505;BME280;8870;50.950;11.762;2022-12-07T17:19:35;97925.78;;;1.53;100.00
17505;BME280;8870;50.950;11.762;2022-12-07T17:25:07;97926.13;;;1.49;100.00
17505;BME280;8870;50.950;11.762;2022-12-07T17:30:29;97928.88;;;1.47;100.00
17505;BME280;8870;50.950;11.762;2022-12-07T17:36:00;97930.09;;;1.43;100.00
17505;BME280;8870;50.950;11.762;2022-12-07T17:41:23;97923.25;;;1.52;100.00
17505;BME280;8870;50.950;11.762;2022-12-07T17:47:10;97935.28;;;1.45;100.00
17505;BME280;8870;50.950;11.762;2022-12-07T17:52:31;97923.91;;;1.43;100.00
17505;BME280;8870;50.950;11.762;2022-12-07T17:58:15;97930.28;;;1.29;100.00
17505;BME280;8870;50.950;11.762;2022-12-07T18:03:48;97929.06;;;1.21;100.00
17505;BME280;8870;50.950;11.762;2022-12-07T18:09:07;97933.63;;;1.19;100.00
17505;BME280;8870;50.950;11.762;2022-12-07T18:14:38;97928.81;;;1.25;100.00
17505;BME280;8870;50.950;11.762;2022-12-07T18:19:59;97914.81;;;1.22;100.00
17505;BME280;8870;50.950;11.762;2022-12-07T18:25:30;97907.44;;;1.15;100.00
17505;BME280;8870;50.950;11.762;2022-12-07T18:30:48;97913.47;;;1.17;100.00
17505;BME280;8870;50.950;11.762;2022-12-07T18:36:37;97910.81;;;1.17;100.00
17505;BME280;8870;50.950;11.762;2022-12-07T18:41:56;97910.47;;;1.21;100.00
17505;BME280;8870;50.950;11.762;2022-12-07T18:47:27;97902.28;;;1.25;100.00
17505;BME280;8870;50.950;11.762;2022-12-07T18:52:47;97905.66;;;1.27;100.00
17505;BME280;8870;50.950;11.762;2022-12-07T18:58:20;97899.38;;;1.28;100.00
17505;BME280;8870;50.950;11.762;2022-12-07T19:03:51;97900.34;;;1.27;100.00
17505;BME280;8870;50.950;11.762;2022-12-07T19:09:24;97904.81;;;1.26;100.00
17505;BME280;8870;50.950;11.762;2022-12-07T19:14:55;97907.47;;;1.26;100.00
17505;BME280;8870;50.950;11.762;2022-12-07T19:20:13;97899.75;;;1.23;100.00
17505;BME280;8870;50.950;11.762;2022-12-07T19:25:47;97901.44;;;1.24;100.00
17505;BME280;8870;50.950;11.762;2022-12-07T19:31:06;97905.03;;;1.23;100.00
17505;BME280;8870;50.950;11.762;2022-12-07T19:36:42;97908.53;;;1.23;100.00
17505;BME280;8870;50.950;11.762;2022-12-07T19:42:04;97903.97;;;1.26;100.00
17505;BME280;8870;50.950;11.762;2022-12-07T19:47:37;97903.00;;;1.27;100.00
17505;BME280;8870;50.950;11.762;2022-12-07T19:53:02;97905.31;;;1.31;100.00
17505;BME280;8870;50.950;11.762;2022-12-07T19:58:35;97899.44;;;1.39;100.00
17505;BME280;8870;50.950;11.762;2022-12-07T20:03:54;97898.69;;;1.37;100.00
17505;BME280;8870;50.950;11.762;2022-12-07T20:09:26;97884.47;;;1.38;100.00
17505;BME280;8870;50.950;11.762;2022-12-07T20:14:47;97889.91;;;1.36;100.00
17505;BME280;8870;50.950;11.762;2022-12-07T20:20:20;97882.06;;;1.35;100.00
17505;BME280;8870;50.950;11.762;2022-12-07T20:25:38;97876.97;;;1.32;100.00
17505;BME280;8870;50.950;11.762;2022-12-07T20:31:13;97868.28;;;1.30;100.00
17505;BME280;8870;50.950;11.762;2022-12-07T20:36:31;97867.53;;;1.28;100.00
17505;BME280;8870;50.950;11.762;2022-12-07T20:42:03;97867.66;;;1.26;100.00
17505;BME280;8870;50.950;11.762;2022-12-07T20:47:39;97858.03;;;1.25;100.00
17505;BME280;8870;50.950;11.762;2022-12-07T20:53:11;97855.22;;;1.27;100.00
17505;BME280;8870;50.950;11.762;2022-12-07T20:58:29;97852.47;;;1.28;100.00
17505;BME280;8870;50.950;11.762;2022-12-07T21:04:03;97841.75;;;1.30;100.00
17505;BME280;8870;50.950;11.762;2022-12-07T21:09:21;97846.31;;;1.28;100.00
17505;BME280;8870;50.950;11.762;2022-12-07T21:14:52;97847.28;;;1.27;100.00
17505;BME280;8870;50.950;11.762;2022-12-07T21:20:13;97848.25;;;1.26;100.00
17505;BME280;8870;50.950;11.762;2022-12-07T21:25:32;97832.44;;;1.24;100.00
17505;BME280;8870;50.950;11.762;2022-12-07T21:31:03;97832.66;;;1.21;100.00
17505;BME280;8870;50.950;11.762;2022-12-07T21:36:25;97822.28;;;1.18;100.00
17505;BME280;8870;50.950;11.762;2022-12-07T21:41:57;97819.03;;;1.14;100.00
17505;BME280;8870;50.950;11.762;2022-12-07T21:47:15;97826.50;;;1.09;100.00
17505;BME280;8870;50.950;11.762;2022-12-07T21:52:49;97824.91;;;1.06;100.00
17505;BME280;8870;50.950;11.762;2022-12-07T21:58:14;97827.19;;;1.00;100.00
17505;BME280;8870;50.950;11.762;2022-12-07T22:03:46;97821.38;;;0.95;100.00
17505;BME280;8870;50.950;11.762;2022-12-07T22:09:07;97822.47;;;0.92;100.00
17505;BME280;8870;50.950;11.762;2022-12-07T22:14:39;97823.53;;;0.89;100.00
17505;BME280;8870;50.950;11.762;2022-12-07T22:20:09;97824.16;;;0.93;100.00
17505;BME280;8870;50.950;11.762;2022-12-07T22:25:44;97834.53;;;0.96;100.00
17505;BME280;8870;50.950;11.762;2022-12-07T22:31:03;97818.00;;;0.92;100.00
17505;BME280;8870;50.950;11.762;2022-12-07T22:36:34;97809.22;;;0.92;100.00
17505;BME280;8870;50.950;11.762;2022-12-07T22:41:55;97809.31;;;0.90;100.00
17505;BME280;8870;50.950;11.762;2022-12-07T22:47:26;97804.00;;;0.90;100.00
17505;BME280;8870;50.950;11.762;2022-12-07T22:52:44;97792.44;;;0.91;100.00
17505;BME280;8870;50.950;11.762;2022-12-07T22:58:19;97795.31;;;0.88;100.00
17505;BME280;8870;50.950;11.762;2022-12-07T23:03:50;97796.31;;;0.87;100.00
17505;BME280;8870;50.950;11.762;2022-12-07T23:09:11;97792.06;;;0.85;100.00
17505;BME280;8870;50.950;11.762;2022-12-07T23:14:45;97781.44;;;0.85;100.00
17505;BME280;8870;50.950;11.762;2022-12-07T23:20:05;97777.97;;;0.84;100.00
17505;BME280;8870;50.950;11.762;2022-12-07T23:25:36;97776.28;;;0.83;100.00
17505;BME280;8870;50.950;11.762;2022-12-07T23:31:03;97776.03;;;0.86;100.00
17505;BME280;8870;50.950;11.762;2022-12-07T23:36:34;97771.44;;;0.88;100.00
17505;BME280;8870;50.950;11.762;2022-12-07T23:41:52;97767.13;;;0.87;100.00
17505;BME280;8870;50.950;11.762;2022-12-07T23:47:25;97757.34;;;0.88;100.00
17505;BME280;8870;50.950;11.762;2022-12-07T23:52:44;97752.28;;;0.85;100.00
